createdAt,value
2022-08-05T00:02:16.026Z,29.80
2022-08-05T00:05:05.686Z,29.80
2022-08-05T00:07:59.799Z,29.80
2022-08-05T00:10:48.680Z,29.80
2022-08-05T00:13:40.046Z,29.70
2022-08-05T00:16:36.452Z,29.70
2022-08-05T00:19:44.159Z,29.60
2022-08-05T00:22:47.117Z,29.70
2022-08-05T00:25:47.106Z,29.60
2022-08-05T00:28:35.146Z,29.70
2022-08-05T00:31:54.184Z,29.60
2022-08-05T00:34:53.952Z,29.60
2022-08-05T00:37:53.349Z,29.60
2022-08-05T00:40:53.210Z,29.60
2022-08-05T00:43:41.613Z,29.60
2022-08-05T00:46:36.940Z,29.60
2022-08-05T00:49:44.391Z,29.60
2022-08-05T00:52:39.057Z,29.60
2022-08-05T00:55:42.337Z,29.50
2022-08-05T00:58:30.181Z,29.60
2022-08-05T01:01:24.765Z,29.50
2022-08-05T01:04:29.709Z,29.50
2022-08-05T01:07:18.702Z,29.50
2022-08-05T01:10:09.578Z,29.50
2022-08-05T01:13:13.261Z,29.50
2022-08-05T01:16:20.999Z,29.50
2022-08-05T01:19:36.755Z,29.50
2022-08-05T01:23:14.311Z,29.50
2022-08-05T01:26:27.810Z,29.50
2022-08-05T01:29:24.196Z,29.50
2022-08-05T01:32:18.674Z,29.60
2022-08-05T01:35:11.559Z,29.50
2022-08-05T01:38:24.662Z,29.50
2022-08-05T01:41:21.917Z,29.50
2022-08-05T01:44:11.586Z,29.50
2022-08-05T01:47:05.304Z,29.50
2022-08-05T01:50:01.567Z,29.50
2022-08-05T01:52:51.366Z,29.50
2022-08-05T01:55:41.052Z,29.50
2022-08-05T01:58:40.944Z,29.50
2022-08-05T02:01:40.535Z,29.40
2022-08-05T02:04:32.082Z,29.50
2022-08-05T02:07:22.209Z,29.50
2022-08-05T02:10:11.296Z,29.40
2022-08-05T02:13:15.835Z,29.50
2022-08-05T02:16:08.510Z,29.50
2022-08-05T02:19:15.170Z,29.50
2022-08-05T02:22:25.893Z,29.50
2022-08-05T02:25:18.896Z,29.50
2022-08-05T02:28:12.088Z,29.50
2022-08-05T02:31:08.300Z,29.50
2022-08-05T02:34:10.023Z,29.50
2022-08-05T02:37:01.447Z,29.40
2022-08-05T02:39:54.597Z,29.40
2022-08-05T02:42:43.014Z,29.40
2022-08-05T02:45:52.452Z,29.40
2022-08-05T02:48:41.916Z,29.40
2022-08-05T02:52:02.756Z,29.40
2022-08-05T02:54:42.177Z,29.40
2022-08-05T02:58:10.044Z,29.30
2022-08-05T03:00:41.554Z,29.40
2022-08-05T03:04:02.543Z,29.30
2022-08-05T03:06:57.161Z,29.40
2022-08-05T03:09:51.714Z,29.30
2022-08-05T03:12:42.244Z,29.30
2022-08-05T03:15:30.609Z,29.40
2022-08-05T03:18:29.791Z,29.30
2022-08-05T03:21:17.697Z,29.30
2022-08-05T03:24:06.450Z,29.30
2022-08-05T03:26:55.785Z,29.30
2022-08-05T03:30:08.680Z,29.30
2022-08-05T03:32:52.312Z,29.30
2022-08-05T03:35:41.863Z,29.30
2022-08-05T03:38:33.162Z,29.30
2022-08-05T03:41:25.086Z,29.30
2022-08-05T03:44:12.492Z,29.30
2022-08-05T03:47:08.515Z,29.20
2022-08-05T03:50:01.259Z,29.30
2022-08-05T03:55:52.579Z,29.20
2022-08-05T03:56:17.953Z,29.20
2022-08-05T03:59:26.153Z,29.20
2022-08-05T04:02:39.168Z,29.30
2022-08-05T04:05:33.389Z,29.20
2022-08-05T04:08:34.790Z,29.20
2022-08-05T04:11:24.617Z,29.20
2022-08-05T04:14:30.420Z,29.20
2022-08-05T04:17:20.451Z,29.20
2022-08-05T04:20:09.640Z,29.10
2022-08-05T04:23:01.867Z,29.10
2022-08-05T04:26:00.589Z,29.10
2022-08-05T04:28:51.118Z,29.10
2022-08-05T04:31:39.993Z,29.10
2022-08-05T04:34:32.347Z,29.00
2022-08-05T04:37:23.078Z,29.00
2022-08-05T04:40:30.159Z,29.00
2022-08-05T04:43:18.151Z,29.00
2022-08-05T04:46:09.872Z,29.00
2022-08-05T04:48:58.009Z,29.00
2022-08-05T04:51:47.943Z,28.90
2022-08-05T04:54:49.466Z,28.90
2022-08-05T04:57:37.999Z,28.90
2022-08-05T05:00:26.058Z,28.90
2022-08-05T05:03:14.072Z,28.90
2022-08-05T05:06:38.712Z,28.90
2022-08-05T05:09:20.750Z,28.90
2022-08-05T05:12:10.311Z,28.90
2022-08-05T05:14:59.209Z,28.90
2022-08-05T05:17:56.314Z,28.80
2022-08-05T05:20:46.071Z,28.80
2022-08-05T05:23:39.385Z,28.80
2022-08-05T05:26:43.262Z,28.70
2022-08-05T05:29:40.864Z,28.50
2022-08-05T05:32:42.059Z,28.50
2022-08-05T05:35:38.090Z,28.60
2022-08-05T05:38:27.941Z,28.60
2022-08-05T05:41:16.420Z,28.70
2022-08-05T05:44:35.693Z,28.60
2022-08-05T05:47:21.983Z,28.60
2022-08-05T05:50:10.731Z,28.60
2022-08-05T05:53:20.838Z,28.60
2022-08-05T05:56:09.685Z,28.60
2022-08-05T05:58:57.090Z,28.60
2022-08-05T06:01:57.164Z,28.60
2022-08-05T06:04:49.144Z,28.60
2022-08-05T06:07:41.271Z,28.60
2022-08-05T06:10:36.679Z,28.60
2022-08-05T06:13:40.521Z,28.60
2022-08-05T06:16:37.669Z,28.60
2022-08-05T06:19:34.501Z,28.50
2022-08-05T06:22:25.991Z,28.50
2022-08-05T06:25:25.259Z,28.50
2022-08-05T06:28:21.943Z,28.50
2022-08-05T06:31:11.110Z,28.50
2022-08-05T06:34:09.105Z,28.50
2022-08-05T06:36:58.782Z,28.50
2022-08-05T06:39:46.442Z,28.50
2022-08-05T06:42:33.923Z,28.50
2022-08-05T06:45:44.507Z,28.40
2022-08-05T06:48:53.216Z,28.40
2022-08-05T06:51:40.887Z,28.40
2022-08-05T06:54:29.773Z,28.50
2022-08-05T06:57:57.166Z,28.50
2022-08-05T07:00:25.945Z,28.50
2022-08-05T07:03:13.303Z,28.50
2022-08-05T07:06:14.326Z,28.60
2022-08-05T07:09:04.221Z,28.60
2022-08-05T07:11:55.716Z,28.60
2022-08-05T07:15:05.703Z,28.60
2022-08-05T07:18:07.139Z,28.70
2022-08-05T07:20:57.683Z,28.70
2022-08-05T07:23:49.967Z,28.80
2022-08-05T07:26:40.181Z,28.80
2022-08-05T07:30:27.815Z,28.90
2022-08-05T07:32:37.123Z,28.90
2022-08-05T07:36:01.747Z,29.00
2022-08-05T07:38:35.376Z,29.00
2022-08-05T07:42:13.425Z,29.00
2022-08-05T07:44:40.214Z,29.10
2022-08-05T07:47:39.645Z,29.20
2022-08-05T07:50:29.920Z,29.20
2022-08-05T07:53:21.003Z,29.30
2022-08-05T07:57:00.793Z,29.30
2022-08-05T07:59:15.981Z,29.40
2022-08-05T08:02:04.764Z,29.40
2022-08-05T08:04:52.320Z,29.50
2022-08-05T08:07:59.731Z,29.50
2022-08-05T08:10:49.046Z,29.50
2022-08-05T08:13:42.951Z,29.60
2022-08-05T08:16:51.410Z,29.60
2022-08-05T08:20:21.965Z,29.60
2022-08-05T08:22:54.321Z,29.70
2022-08-05T08:26:02.188Z,29.70
2022-08-05T08:28:55.155Z,29.70
2022-08-05T08:31:47.215Z,29.70
2022-08-05T08:34:35.793Z,29.70
2022-08-05T08:37:25.233Z,29.70
2022-08-05T08:40:15.599Z,29.70
2022-08-05T08:45:19.455Z,29.70
2022-08-05T08:46:15.590Z,29.70
2022-08-05T08:50:22.855Z,29.70
2022-08-05T08:52:15.841Z,29.80
2022-08-05T08:55:13.249Z,29.80
2022-08-05T08:58:02.249Z,29.80
2022-08-05T09:00:51.607Z,29.80
2022-08-05T09:03:45.204Z,29.80
2022-08-05T09:06:33.412Z,29.80
2022-08-05T09:09:23.935Z,29.80
2022-08-05T09:12:20.414Z,29.90
2022-08-05T09:15:17.439Z,29.90
2022-08-05T09:18:09.255Z,29.90
2022-08-05T09:20:57.271Z,29.90
2022-08-05T09:23:47.212Z,29.90
2022-08-05T09:26:34.829Z,29.90
2022-08-05T09:29:47.727Z,30.00
2022-08-05T09:32:41.297Z,30.00
2022-08-05T09:35:34.204Z,30.00
2022-08-05T09:38:27.577Z,30.00
2022-08-05T09:41:17.055Z,30.00
2022-08-05T09:44:05.125Z,30.00
2022-08-05T09:47:10.416Z,29.90
2022-08-05T09:50:02.129Z,30.00
2022-08-05T09:52:59.765Z,30.00
2022-08-05T09:55:57.697Z,30.00
2022-08-05T09:59:00.969Z,30.00
2022-08-05T10:01:57.991Z,30.10
2022-08-05T10:04:48.466Z,30.10
2022-08-05T10:08:35.031Z,30.10
2022-08-05T10:11:01.211Z,30.10
2022-08-05T10:13:54.626Z,30.20
2022-08-05T10:16:52.525Z,30.20
2022-08-05T10:20:03.192Z,30.20
2022-08-05T10:22:51.277Z,30.30
2022-08-05T10:25:38.950Z,30.30
2022-08-05T10:28:29.112Z,30.30
2022-08-05T10:32:48.367Z,30.40
2022-08-05T10:34:31.142Z,30.40
2022-08-05T10:37:19.715Z,30.50
2022-08-05T10:40:22.427Z,30.50
2022-08-05T10:43:38.458Z,30.60
2022-08-05T10:46:44.414Z,30.60
2022-08-05T10:49:33.272Z,30.70
2022-08-05T10:52:49.523Z,30.70
2022-08-05T10:56:07.972Z,30.70
2022-08-05T11:00:01.066Z,30.70
2022-08-05T11:02:37.620Z,30.70
2022-08-05T11:05:29.123Z,30.80
2022-08-05T11:08:36.685Z,30.80
2022-08-05T11:11:44.266Z,30.80
2022-08-05T11:17:59.858Z,30.80
2022-08-05T11:20:52.478Z,30.80
2022-08-05T11:24:03.784Z,30.80
2022-08-05T11:27:50.082Z,30.80
2022-08-05T11:31:57.404Z,30.90
2022-08-05T11:34:52.242Z,30.90
2022-08-05T11:38:28.239Z,31.00
2022-08-05T11:41:34.679Z,30.90
2022-08-05T11:44:40.517Z,31.00
2022-08-05T11:47:49.701Z,31.00
2022-08-05T11:50:39.796Z,31.00
2022-08-05T11:53:27.429Z,31.10
2022-08-05T11:56:21.650Z,31.10
2022-08-05T11:59:41.249Z,31.10
2022-08-05T12:02:40.200Z,31.10
2022-08-05T12:05:39.545Z,31.10
2022-08-05T12:08:32.751Z,31.10
2022-08-05T12:11:23.190Z,31.10
2022-08-05T12:14:10.901Z,31.10
2022-08-05T12:17:00.212Z,31.10
2022-08-05T12:20:27.016Z,31.10
2022-08-05T12:23:12.809Z,31.10
2022-08-05T12:26:01.333Z,31.10
2022-08-05T12:28:49.684Z,31.10
2022-08-05T12:31:47.609Z,31.20
2022-08-05T12:34:39.844Z,31.20
2022-08-05T12:37:32.310Z,31.20
2022-08-05T12:40:26.746Z,31.20
2022-08-05T12:43:21.162Z,31.20
2022-08-05T12:46:12.507Z,31.20
2022-08-05T12:49:05.790Z,31.20
2022-08-05T12:52:12.789Z,31.20
2022-08-05T12:55:22.237Z,31.20
2022-08-05T12:58:49.663Z,31.20
2022-08-05T13:02:01.518Z,31.20
2022-08-05T13:04:52.326Z,31.20
2022-08-05T13:07:59.532Z,31.20
2022-08-05T13:10:50.721Z,31.20
2022-08-05T13:14:05.296Z,31.20
2022-08-05T13:16:56.663Z,31.10
2022-08-05T13:20:00.910Z,31.10
2022-08-05T13:22:53.190Z,31.10
2022-08-05T13:25:52.343Z,31.20
2022-08-05T13:28:46.876Z,31.10
2022-08-05T13:32:04.199Z,31.20
2022-08-05T13:34:42.767Z,31.20
2022-08-05T13:37:34.735Z,31.20
2022-08-05T13:40:48.132Z,31.20
2022-08-05T13:43:43.373Z,31.20
2022-08-05T13:46:44.329Z,31.20
2022-08-05T13:49:45.348Z,31.20
2022-08-05T13:52:35.878Z,31.20
2022-08-05T13:55:41.139Z,31.20
2022-08-05T13:58:31.216Z,31.20
2022-08-05T14:01:18.853Z,31.20
2022-08-05T14:04:26.744Z,31.30
2022-08-05T14:07:56.344Z,31.30
2022-08-05T14:10:28.929Z,31.30
2022-08-05T14:13:18.634Z,31.30
2022-08-05T14:16:11.856Z,31.30
2022-08-05T14:19:05.090Z,31.30
2022-08-05T14:22:10.416Z,31.30
2022-08-05T14:25:00.354Z,31.30
2022-08-05T14:27:51.089Z,31.30
2022-08-05T14:30:38.675Z,31.40
2022-08-05T14:33:59.381Z,31.40
2022-08-05T14:36:41.875Z,31.30
2022-08-05T14:39:49.545Z,31.40
2022-08-05T14:42:42.179Z,31.40
2022-08-05T14:45:31.502Z,31.40
2022-08-05T14:48:32.692Z,31.40
2022-08-05T14:51:21.830Z,31.40
2022-08-05T14:54:27.824Z,31.40
2022-08-05T14:57:18.334Z,31.40
2022-08-05T15:00:07.995Z,31.40
2022-08-05T15:02:59.529Z,31.40
2022-08-05T15:06:12.982Z,31.40
2022-08-05T15:08:59.390Z,31.40
2022-08-05T15:11:53.665Z,31.40
2022-08-05T15:14:41.421Z,31.40
2022-08-05T15:17:47.271Z,31.40
2022-08-05T15:20:41.027Z,31.40
2022-08-05T15:23:29.736Z,31.40
2022-08-05T15:26:31.940Z,31.40
2022-08-05T15:29:20.116Z,31.40
2022-08-05T15:32:10.152Z,31.40
2022-08-05T15:34:57.996Z,31.40
2022-08-05T15:38:34.386Z,31.40
2022-08-05T15:41:20.208Z,31.30
2022-08-05T15:44:03.379Z,31.40
2022-08-05T15:46:53.025Z,31.40
2022-08-05T15:49:56.555Z,31.30
2022-08-05T15:52:53.163Z,31.30
2022-08-05T15:56:04.118Z,31.30
2022-08-05T15:58:51.919Z,31.20
2022-08-05T16:01:52.587Z,31.20
2022-08-05T16:04:41.362Z,31.20
2022-08-05T16:07:30.142Z,31.20
2022-08-05T16:10:23.273Z,31.20
2022-08-05T16:13:13.402Z,31.10
2022-08-05T16:16:12.307Z,31.10
2022-08-05T16:19:00.382Z,31.10
2022-08-05T16:21:58.627Z,31.00
2022-08-05T16:24:51.223Z,31.00
2022-08-05T16:28:00.534Z,31.00
2022-08-05T16:30:50.465Z,31.00
2022-08-05T16:33:41.520Z,30.90
2022-08-05T16:36:29.884Z,30.90
2022-08-05T16:39:18.664Z,30.80
2022-08-05T16:42:14.868Z,30.80
2022-08-05T16:46:06.598Z,30.80
2022-08-05T16:48:25.183Z,30.80
2022-08-05T16:51:15.924Z,30.70
2022-08-05T16:54:09.891Z,30.70
2022-08-05T16:57:03.946Z,30.70
2022-08-05T17:00:08.359Z,30.60
2022-08-05T17:02:59.550Z,30.60
2022-08-05T17:05:51.837Z,30.50
2022-08-05T17:08:53.388Z,30.50
2022-08-05T17:11:46.069Z,30.50
2022-08-05T17:14:38.344Z,30.40
2022-08-05T17:17:42.063Z,30.40
2022-08-05T17:20:32.703Z,30.40
2022-08-05T17:24:04.936Z,30.40
2022-08-05T17:26:28.562Z,30.30
2022-08-05T17:29:22.573Z,30.30
2022-08-05T17:32:20.909Z,30.20
2022-08-05T17:35:10.526Z,30.20
2022-08-05T17:38:04.910Z,30.20
2022-08-05T17:40:53.108Z,30.10
2022-08-05T17:43:46.694Z,30.10
2022-08-05T17:46:35.557Z,30.10
2022-08-05T17:49:23.874Z,30.00
2022-08-05T17:52:14.369Z,30.00
2022-08-05T17:55:08.021Z,29.90
2022-08-05T17:57:57.567Z,29.90
2022-08-05T18:00:50.646Z,29.90
2022-08-05T18:03:59.308Z,29.90
2022-08-05T18:06:51.950Z,29.80
2022-08-05T18:09:59.722Z,29.80
2022-08-05T18:12:53.984Z,29.70
2022-08-05T18:15:43.781Z,29.70
2022-08-05T18:18:39.664Z,29.70
2022-08-05T18:22:07.530Z,29.70
2022-08-05T18:24:47.113Z,29.70
2022-08-05T18:27:42.342Z,29.60
2022-08-05T18:30:43.370Z,29.60
2022-08-05T18:33:46.691Z,29.50
2022-08-05T18:36:38.457Z,29.50
2022-08-05T18:40:29.643Z,29.40
2022-08-05T18:42:38.927Z,29.50
2022-08-05T18:45:41.311Z,29.40
2022-08-05T18:48:41.862Z,29.30
2022-08-05T18:52:04.188Z,29.30
2022-08-05T18:54:58.718Z,29.30
2022-08-05T18:58:03.408Z,29.20
2022-08-05T19:00:54.180Z,29.20
2022-08-05T19:03:54.900Z,29.10
2022-08-05T19:06:45.538Z,29.10
2022-08-05T19:09:42.989Z,29.00
2022-08-05T19:12:33.719Z,29.00
2022-08-05T19:15:57.908Z,29.00
2022-08-05T19:18:38.488Z,28.90
2022-08-05T19:21:34.738Z,28.90
2022-08-05T19:24:34.880Z,28.90
2022-08-05T19:27:36.984Z,28.80
2022-08-05T19:30:24.814Z,28.80
2022-08-05T19:33:12.930Z,28.80
2022-08-05T19:36:08.865Z,28.70
2022-08-05T19:39:04.205Z,28.70
2022-08-05T19:42:05.662Z,28.70
2022-08-05T19:44:57.002Z,28.60
2022-08-05T19:47:48.453Z,28.60
2022-08-05T19:50:47.838Z,28.50
2022-08-05T19:54:03.561Z,28.60
2022-08-05T19:56:48.478Z,28.50
2022-08-05T19:59:56.618Z,28.40
2022-08-05T20:03:01.056Z,28.40
2022-08-05T20:05:58.873Z,28.40
2022-08-05T20:09:13.642Z,28.40
2022-08-05T20:12:06.493Z,28.30
2022-08-05T20:14:58.405Z,28.30
2022-08-05T20:17:49.974Z,28.20
2022-08-05T20:23:57.246Z,28.20
2022-08-05T20:26:48.255Z,28.10
2022-08-05T20:29:57.525Z,28.10
2022-08-05T20:32:46.651Z,28.10
2022-08-05T20:35:40.572Z,28.00
2022-08-05T20:38:40.761Z,28.00
2022-08-05T20:41:45.290Z,28.00
2022-08-05T20:44:42.368Z,27.90
2022-08-05T20:47:42.717Z,27.90
2022-08-05T20:50:33.764Z,27.80
2022-08-05T20:53:36.554Z,27.80
2022-08-05T20:56:31.900Z,27.80
2022-08-05T20:59:26.885Z,27.80
2022-08-05T21:02:18.074Z,27.70
2022-08-05T21:05:11.183Z,27.70
2022-08-05T21:07:59.480Z,27.60
2022-08-05T21:10:48.811Z,27.60
2022-08-05T21:13:47.745Z,27.60
2022-08-05T21:16:45.677Z,27.50
2022-08-05T21:19:47.502Z,27.50
2022-08-05T21:22:39.335Z,27.50
2022-08-05T21:25:33.529Z,27.50
2022-08-05T21:28:24.005Z,27.40
2022-08-05T21:31:18.328Z,27.40
2022-08-05T21:34:06.554Z,27.40
2022-08-05T21:36:55.571Z,27.40
2022-08-05T21:39:44.793Z,27.30
2022-08-05T21:42:44.067Z,27.30
2022-08-05T21:45:56.748Z,27.30
2022-08-05T21:48:40.799Z,27.20
2022-08-05T21:52:22.483Z,27.20
2022-08-05T21:54:38.503Z,27.10
2022-08-05T21:57:31.165Z,27.10
2022-08-05T22:00:20.160Z,27.10
2022-08-05T22:03:14.669Z,27.10
2022-08-05T22:06:02.334Z,27.00
2022-08-05T22:08:53.469Z,27.00
2022-08-05T22:11:43.566Z,27.00
2022-08-05T22:14:37.907Z,27.00
2022-08-05T22:17:26.975Z,27.00
2022-08-05T22:20:16.665Z,26.90
2022-08-05T22:23:23.225Z,26.90
2022-08-05T22:26:28.774Z,26.90
2022-08-05T22:29:17.569Z,26.90
2022-08-05T22:32:09.944Z,26.80
2022-08-05T22:35:01.066Z,26.80
2022-08-05T22:37:58.997Z,26.80
2022-08-05T22:40:49.642Z,26.80
2022-08-05T22:43:38.422Z,26.70
2022-08-05T22:46:26.635Z,26.80
2022-08-05T22:50:18.180Z,26.70
2022-08-05T22:52:32.453Z,26.70
2022-08-05T22:55:24.306Z,26.70
2022-08-05T22:58:14.533Z,26.60
2022-08-05T23:01:02.621Z,26.60
2022-08-05T23:03:58.314Z,26.60
2022-08-05T23:06:52.008Z,26.60
2022-08-05T23:09:57.404Z,26.60
2022-08-05T23:12:47.917Z,26.50
2022-08-05T23:15:39.797Z,26.50
2022-08-05T23:18:27.797Z,26.50
2022-08-05T23:21:16.455Z,26.40
2022-08-05T23:24:11.376Z,26.40
2022-08-05T23:26:59.974Z,26.40
2022-08-05T23:29:50.575Z,26.40
2022-08-05T23:32:45.003Z,26.40
2022-08-05T23:35:34.448Z,26.30
2022-08-05T23:38:22.819Z,26.30
2022-08-05T23:41:13.347Z,26.30
2022-08-05T23:44:04.918Z,26.20
2022-08-05T23:46:55.079Z,26.20
2022-08-05T23:49:45.531Z,26.20
2022-08-05T23:52:35.965Z,26.20
2022-08-05T23:55:38.389Z,26.20
2022-08-05T23:58:31.959Z,26.10
